sensor_id;sensor_type;location;lat;lon;timestamp;P1;durP1;ratioP1;P2;durP2;ratioP2
49710;SDS011;35602;44.534;18.696;2022-09-30T00:04:08;26.48;;;22.87;;
49710;SDS011;35602;44.534;18.696;2022-09-30T00:09:12;29.58;;;24.55;;
49710;SDS011;35602;44.534;18.696;2022-09-30T00:14:16;25.88;;;22.75;;
49710;SDS011;35602;44.534;18.696;2022-09-30T00:19:20;28.92;;;23.55;;
49710;SDS011;35602;44.534;18.696;2022-09-30T00:24:21;26.52;;;23.20;;
49710;SDS011;35602;44.534;18.696;2022-09-30T00:29:21;26.25;;;23.15;;
49710;SDS011;35602;44.534;18.696;2022-09-30T00:34:22;26.48;;;22.83;;
49710;SDS011;35602;44.534;18.696;2022-09-30T00:39:24;24.12;;;21.12;;
49710;SDS011;35602;44.534;18.696;2022-09-30T00:46:20;24.52;;;21.83;;
49710;SDS011;35602;44.534;18.696;2022-09-30T00:51:34;24.98;;;21.45;;
49710;SDS011;35602;44.534;18.696;2022-09-30T00:56:38;23.60;;;21.00;;
49710;SDS011;35602;44.534;18.696;2022-09-30T01:01:43;26.25;;;21.65;;
49710;SDS011;35602;44.534;18.696;2022-09-30T01:06:44;24.48;;;20.83;;
49710;SDS011;35602;44.534;18.696;2022-09-30T01:11:45;23.55;;;20.60;;
49710;SDS011;35602;44.534;18.696;2022-09-30T01:16:53;25.67;;;21.23;;
49710;SDS011;35602;44.534;18.696;2022-09-30T01:45:49;22.58;;;20.20;;
49710;SDS011;35602;44.534;18.696;2022-09-30T01:51:06;21.60;;;19.40;;
49710;SDS011;35602;44.534;18.696;2022-09-30T01:56:53;21.62;;;19.33;;
49710;SDS011;35602;44.534;18.696;2022-09-30T02:07:10;22.30;;;19.05;;
49710;SDS011;35602;44.534;18.696;2022-09-30T02:12:18;20.52;;;18.33;;
49710;SDS011;35602;44.534;18.696;2022-09-30T02:17:23;20.90;;;18.45;;
49710;SDS011;35602;44.534;18.696;2022-09-30T02:22:40;20.30;;;18.15;;
49710;SDS011;35602;44.534;18.696;2022-09-30T02:27:47;20.25;;;17.60;;
49710;SDS011;35602;44.534;18.696;2022-09-30T02:33:03;21.12;;;17.62;;
49710;SDS011;35602;44.534;18.696;2022-09-30T02:38:16;19.25;;;17.17;;
49710;SDS011;35602;44.534;18.696;2022-09-30T02:43:19;20.33;;;17.05;;
49710;SDS011;35602;44.534;18.696;2022-09-30T02:48:25;19.02;;;17.02;;
49710;SDS011;35602;44.534;18.696;2022-09-30T02:53:42;19.50;;;17.40;;
49710;SDS011;35602;44.534;18.696;2022-09-30T02:58:51;18.92;;;16.92;;
49710;SDS011;35602;44.534;18.696;2022-09-30T03:04:04;17.90;;;15.60;;
49710;SDS011;35602;44.534;18.696;2022-09-30T03:09:09;18.50;;;16.42;;
49710;SDS011;35602;44.534;18.696;2022-09-30T03:23:17;17.80;;;15.90;;
49710;SDS011;35602;44.534;18.696;2022-09-30T03:37:09;16.62;;;14.87;;
49710;SDS011;35602;44.534;18.696;2022-09-30T03:42:28;16.55;;;14.82;;
49710;SDS011;35602;44.534;18.696;2022-09-30T03:47:44;16.30;;;14.60;;
49710;SDS011;35602;44.534;18.696;2022-09-30T03:52:51;16.08;;;14.38;;
49710;SDS011;35602;44.534;18.696;2022-09-30T03:57:52;17.02;;;14.55;;
49710;SDS011;35602;44.534;18.696;2022-09-30T04:02:53;16.62;;;14.48;;
49710;SDS011;35602;44.534;18.696;2022-09-30T04:07:54;16.75;;;15.02;;
49710;SDS011;35602;44.534;18.696;2022-09-30T04:12:55;16.37;;;14.30;;
49710;SDS011;35602;44.534;18.696;2022-09-30T04:17:57;16.17;;;14.57;;
49710;SDS011;35602;44.534;18.696;2022-09-30T04:22:58;16.08;;;14.38;;
49710;SDS011;35602;44.534;18.696;2022-09-30T04:28:00;15.45;;;13.70;;
49710;SDS011;35602;44.534;18.696;2022-09-30T04:33:01;15.40;;;13.75;;
49710;SDS011;35602;44.534;18.696;2022-09-30T04:38:02;15.52;;;13.93;;
49710;SDS011;35602;44.534;18.696;2022-09-30T04:43:06;16.48;;;14.07;;
49710;SDS011;35602;44.534;18.696;2022-09-30T04:48:07;15.98;;;14.27;;
49710;SDS011;35602;44.534;18.696;2022-09-30T04:53:07;15.50;;;13.90;;
49710;SDS011;35602;44.534;18.696;2022-09-30T04:58:10;14.85;;;13.25;;
49710;SDS011;35602;44.534;18.696;2022-09-30T05:03:12;14.50;;;12.98;;
49710;SDS011;35602;44.534;18.696;2022-09-30T05:08:12;15.35;;;13.75;;
49710;SDS011;35602;44.534;18.696;2022-09-30T05:13:14;14.65;;;13.10;;
49710;SDS011;35602;44.534;18.696;2022-09-30T05:18:15;14.82;;;13.18;;
49710;SDS011;35602;44.534;18.696;2022-09-30T05:23:18;14.35;;;12.85;;
49710;SDS011;35602;44.534;18.696;2022-09-30T05:28:19;13.93;;;12.50;;
49710;SDS011;35602;44.534;18.696;2022-09-30T05:33:20;15.35;;;13.40;;
49710;SDS011;35602;44.534;18.696;2022-09-30T05:38:21;15.20;;;13.60;;
49710;SDS011;35602;44.534;18.696;2022-09-30T05:43:23;14.55;;;13.00;;
49710;SDS011;35602;44.534;18.696;2022-09-30T05:48:24;14.65;;;12.85;;
49710;SDS011;35602;44.534;18.696;2022-09-30T05:53:25;14.38;;;12.73;;
49710;SDS011;35602;44.534;18.696;2022-09-30T05:58:27;15.82;;;13.60;;
49710;SDS011;35602;44.534;18.696;2022-09-30T06:03:28;14.38;;;12.88;;
49710;SDS011;35602;44.534;18.696;2022-09-30T06:08:29;15.73;;;13.77;;
49710;SDS011;35602;44.534;18.696;2022-09-30T06:13:30;14.00;;;12.37;;
49710;SDS011;35602;44.534;18.696;2022-09-30T06:18:32;15.20;;;13.60;;
49710;SDS011;35602;44.534;18.696;2022-09-30T06:23:34;16.70;;;13.75;;
49710;SDS011;35602;44.534;18.696;2022-09-30T06:28:35;16.98;;;14.20;;
49710;SDS011;35602;44.534;18.696;2022-09-30T06:33:37;17.12;;;14.98;;
49710;SDS011;35602;44.534;18.696;2022-09-30T06:38:38;18.27;;;15.43;;
49710;SDS011;35602;44.534;18.696;2022-09-30T06:43:39;18.80;;;14.52;;
49710;SDS011;35602;44.534;18.696;2022-09-30T06:48:41;21.12;;;15.85;;
49710;SDS011;35602;44.534;18.696;2022-09-30T06:53:42;32.00;;;24.15;;
49710;SDS011;35602;44.534;18.696;2022-09-30T06:58:43;38.55;;;29.23;;
49710;SDS011;35602;44.534;18.696;2022-09-30T07:03:45;36.97;;;27.27;;
49710;SDS011;35602;44.534;18.696;2022-09-30T07:08:46;38.03;;;26.52;;
49710;SDS011;35602;44.534;18.696;2022-09-30T07:13:47;28.48;;;23.60;;
49710;SDS011;35602;44.534;18.696;2022-09-30T07:18:48;34.38;;;24.02;;
49710;SDS011;35602;44.534;18.696;2022-09-30T07:23:49;32.33;;;22.80;;
49710;SDS011;35602;44.534;18.696;2022-09-30T07:28:52;37.50;;;25.20;;
49710;SDS011;35602;44.534;18.696;2022-09-30T07:33:52;41.13;;;25.73;;
49710;SDS011;35602;44.534;18.696;2022-09-30T07:38:55;36.92;;;24.23;;
49710;SDS011;35602;44.534;18.696;2022-09-30T07:43:56;53.42;;;28.23;;
49710;SDS011;35602;44.534;18.696;2022-09-30T07:49:00;44.33;;;26.70;;
49710;SDS011;35602;44.534;18.696;2022-09-30T07:54:05;46.53;;;26.92;;
49710;SDS011;35602;44.534;18.696;2022-09-30T07:59:11;46.60;;;28.73;;
49710;SDS011;35602;44.534;18.696;2022-09-30T08:04:12;47.92;;;28.27;;
49710;SDS011;35602;44.534;18.696;2022-09-30T08:09:15;47.50;;;27.17;;
49710;SDS011;35602;44.534;18.696;2022-09-30T08:14:20;39.40;;;24.87;;
49710;SDS011;35602;44.534;18.696;2022-09-30T08:19:23;39.08;;;25.90;;
49710;SDS011;35602;44.534;18.696;2022-09-30T08:24:25;42.00;;;26.30;;
49710;SDS011;35602;44.534;18.696;2022-09-30T08:29:26;42.17;;;25.80;;
49710;SDS011;35602;44.534;18.696;2022-09-30T08:34:27;38.35;;;26.25;;
49710;SDS011;35602;44.534;18.696;2022-09-30T08:39:32;44.80;;;27.92;;
49710;SDS011;35602;44.534;18.696;2022-09-30T08:44:43;41.75;;;27.23;;
49710;SDS011;35602;44.534;18.696;2022-09-30T08:50:05;42.50;;;26.62;;
49710;SDS011;35602;44.534;18.696;2022-09-30T08:55:25;42.65;;;28.23;;
49710;SDS011;35602;44.534;18.696;2022-09-30T09:00:31;40.63;;;27.17;;
49710;SDS011;35602;44.534;18.696;2022-09-30T09:06:20;42.53;;;28.30;;
49710;SDS011;35602;44.534;18.696;2022-09-30T09:22:43;42.70;;;27.92;;
49710;SDS011;35602;44.534;18.696;2022-09-30T09:27:50;42.38;;;29.20;;
49710;SDS011;35602;44.534;18.696;2022-09-30T09:33:40;39.47;;;28.38;;
49710;SDS011;35602;44.534;18.696;2022-09-30T09:47:32;39.90;;;25.88;;
49710;SDS011;35602;44.534;18.696;2022-09-30T09:52:43;41.03;;;28.83;;
49710;SDS011;35602;44.534;18.696;2022-09-30T09:58:11;42.67;;;30.05;;
49710;SDS011;35602;44.534;18.696;2022-09-30T10:03:14;57.97;;;38.78;;
49710;SDS011;35602;44.534;18.696;2022-09-30T10:08:24;66.65;;;45.92;;
49710;SDS011;35602;44.534;18.696;2022-09-30T10:13:46;62.83;;;44.50;;
49710;SDS011;35602;44.534;18.696;2022-09-30T10:18:50;77.40;;;50.25;;
49710;SDS011;35602;44.534;18.696;2022-09-30T10:23:51;76.68;;;49.40;;
49710;SDS011;35602;44.534;18.696;2022-09-30T10:28:57;70.55;;;47.20;;
49710;SDS011;35602;44.534;18.696;2022-09-30T10:40:26;70.20;;;47.67;;
49710;SDS011;35602;44.534;18.696;2022-09-30T10:45:32;64.93;;;45.03;;
49710;SDS011;35602;44.534;18.696;2022-09-30T10:50:37;62.40;;;43.80;;
49710;SDS011;35602;44.534;18.696;2022-09-30T10:55:40;62.80;;;44.10;;
49710;SDS011;35602;44.534;18.696;2022-09-30T11:00:42;59.83;;;40.80;;
49710;SDS011;35602;44.534;18.696;2022-09-30T11:05:44;63.70;;;43.25;;
49710;SDS011;35602;44.534;18.696;2022-09-30T11:17:05;55.97;;;41.70;;
49710;SDS011;35602;44.534;18.696;2022-09-30T11:22:55;57.47;;;41.45;;
49710;SDS011;35602;44.534;18.696;2022-09-30T11:28:25;58.80;;;41.13;;
49710;SDS011;35602;44.534;18.696;2022-09-30T11:33:53;59.80;;;41.13;;
49710;SDS011;35602;44.534;18.696;2022-09-30T11:50:31;58.60;;;42.55;;
49710;SDS011;35602;44.534;18.696;2022-09-30T11:56:48;54.67;;;40.47;;
49710;SDS011;35602;44.534;18.696;2022-09-30T12:08:55;51.03;;;38.78;;
49710;SDS011;35602;44.534;18.696;2022-09-30T12:14:02;52.87;;;40.37;;
49710;SDS011;35602;44.534;18.696;2022-09-30T12:19:14;54.70;;;41.37;;
49710;SDS011;35602;44.534;18.696;2022-09-30T12:24:22;60.17;;;43.53;;
49710;SDS011;35602;44.534;18.696;2022-09-30T12:29:57;68.83;;;49.37;;
49710;SDS011;35602;44.534;18.696;2022-09-30T12:47:02;78.97;;;54.53;;
49710;SDS011;35602;44.534;18.696;2022-09-30T12:52:29;86.95;;;59.45;;
49710;SDS011;35602;44.534;18.696;2022-09-30T12:57:33;94.62;;;67.78;;
49710;SDS011;35602;44.534;18.696;2022-09-30T13:02:41;91.53;;;65.12;;
49710;SDS011;35602;44.534;18.696;2022-09-30T13:08:08;97.07;;;70.50;;
49710;SDS011;35602;44.534;18.696;2022-09-30T13:13:24;96.72;;;69.07;;
49710;SDS011;35602;44.534;18.696;2022-09-30T13:24:20;93.62;;;68.97;;
49710;SDS011;35602;44.534;18.696;2022-09-30T13:36:24;90.60;;;65.03;;
49710;SDS011;35602;44.534;18.696;2022-09-30T13:41:26;93.50;;;64.03;;
49710;SDS011;35602;44.534;18.696;2022-09-30T13:46:29;91.12;;;68.47;;
49710;SDS011;35602;44.534;18.696;2022-09-30T13:51:49;95.72;;;68.00;;
49710;SDS011;35602;44.534;18.696;2022-09-30T13:56:51;91.18;;;66.22;;
49710;SDS011;35602;44.534;18.696;2022-09-30T14:02:01;93.40;;;65.32;;
49710;SDS011;35602;44.534;18.696;2022-09-30T14:10:18;91.10;;;65.72;;
49710;SDS011;35602;44.534;18.696;2022-09-30T14:22:45;88.15;;;63.63;;
49710;SDS011;35602;44.534;18.696;2022-09-30T14:28:03;87.95;;;61.70;;
49710;SDS011;35602;44.534;18.696;2022-09-30T14:33:21;77.93;;;58.40;;
49710;SDS011;35602;44.534;18.696;2022-09-30T14:43:29;78.35;;;59.15;;
49710;SDS011;35602;44.534;18.696;2022-09-30T14:48:35;79.37;;;60.97;;
49710;SDS011;35602;44.534;18.696;2022-09-30T14:53:50;78.72;;;59.42;;
49710;SDS011;35602;44.534;18.696;2022-09-30T14:59:20;76.00;;;58.42;;
49710;SDS011;35602;44.534;18.696;2022-09-30T15:04:33;75.75;;;56.85;;
49710;SDS011;35602;44.534;18.696;2022-09-30T15:09:38;74.60;;;56.85;;
49710;SDS011;35602;44.534;18.696;2022-09-30T15:14:46;70.65;;;55.33;;
49710;SDS011;35602;44.534;18.696;2022-09-30T15:19:55;77.00;;;57.72;;
49710;SDS011;35602;44.534;18.696;2022-09-30T15:24:57;71.00;;;56.10;;
49710;SDS011;35602;44.534;18.696;2022-09-30T15:30:03;73.62;;;56.47;;
49710;SDS011;35602;44.534;18.696;2022-09-30T15:36:15;67.40;;;53.67;;
49710;SDS011;35602;44.534;18.696;2022-09-30T15:41:17;70.03;;;52.47;;
49710;SDS011;35602;44.534;18.696;2022-09-30T15:46:19;68.43;;;52.83;;
49710;SDS011;35602;44.534;18.696;2022-09-30T15:51:27;68.97;;;53.45;;
49710;SDS011;35602;44.534;18.696;2022-09-30T16:01:40;66.90;;;53.53;;
49710;SDS011;35602;44.534;18.696;2022-09-30T16:06:46;68.80;;;53.60;;
49710;SDS011;35602;44.534;18.696;2022-09-30T16:12:14;67.78;;;52.33;;
49710;SDS011;35602;44.534;18.696;2022-09-30T16:17:28;65.00;;;52.15;;
49710;SDS011;35602;44.534;18.696;2022-09-30T16:28:25;64.15;;;52.42;;
49710;SDS011;35602;44.534;18.696;2022-09-30T16:33:26;66.40;;;52.25;;
49710;SDS011;35602;44.534;18.696;2022-09-30T16:38:27;65.57;;;51.90;;
49710;SDS011;35602;44.534;18.696;2022-09-30T16:43:28;66.68;;;52.20;;
49710;SDS011;35602;44.534;18.696;2022-09-30T16:48:30;65.25;;;51.97;;
49710;SDS011;35602;44.534;18.696;2022-09-30T16:53:34;63.28;;;52.03;;
49710;SDS011;35602;44.534;18.696;2022-09-30T16:58:34;59.88;;;46.53;;
49710;SDS011;35602;44.534;18.696;2022-09-30T17:03:35;61.78;;;50.80;;
49710;SDS011;35602;44.534;18.696;2022-09-30T17:08:36;62.92;;;50.00;;
49710;SDS011;35602;44.534;18.696;2022-09-30T17:13:37;58.72;;;47.80;;
49710;SDS011;35602;44.534;18.696;2022-09-30T17:18:37;60.88;;;50.25;;
49710;SDS011;35602;44.534;18.696;2022-09-30T17:23:39;61.67;;;50.67;;
49710;SDS011;35602;44.534;18.696;2022-09-30T17:28:40;60.08;;;48.42;;
49710;SDS011;35602;44.534;18.696;2022-09-30T17:33:41;58.92;;;49.58;;
49710;SDS011;35602;44.534;18.696;2022-09-30T17:38:42;58.85;;;47.97;;
49710;SDS011;35602;44.534;18.696;2022-09-30T17:43:43;56.75;;;47.65;;
49710;SDS011;35602;44.534;18.696;2022-09-30T17:48:47;61.75;;;49.00;;
49710;SDS011;35602;44.534;18.696;2022-09-30T17:53:49;58.35;;;47.40;;
49710;SDS011;35602;44.534;18.696;2022-09-30T17:58:50;58.75;;;46.75;;
49710;SDS011;35602;44.534;18.696;2022-09-30T18:03:51;57.62;;;47.58;;
49710;SDS011;35602;44.534;18.696;2022-09-30T18:08:52;56.95;;;46.37;;
49710;SDS011;35602;44.534;18.696;2022-09-30T18:13:57;59.90;;;48.53;;
49710;SDS011;35602;44.534;18.696;2022-09-30T18:18:59;55.10;;;46.97;;
49710;SDS011;35602;44.534;18.696;2022-09-30T18:24:01;57.28;;;47.33;;
49710;SDS011;35602;44.534;18.696;2022-09-30T18:29:03;55.72;;;45.53;;
49710;SDS011;35602;44.534;18.696;2022-09-30T18:34:05;58.65;;;47.72;;
49710;SDS011;35602;44.534;18.696;2022-09-30T18:39:06;55.67;;;45.47;;
49710;SDS011;35602;44.534;18.696;2022-09-30T18:44:07;57.55;;;45.35;;
49710;SDS011;35602;44.534;18.696;2022-09-30T18:49:08;59.17;;;46.90;;
49710;SDS011;35602;44.534;18.696;2022-09-30T18:54:13;54.88;;;46.25;;
49710;SDS011;35602;44.534;18.696;2022-09-30T18:59:15;53.03;;;44.10;;
49710;SDS011;35602;44.534;18.696;2022-09-30T19:04:17;52.20;;;43.17;;
49710;SDS011;35602;44.534;18.696;2022-09-30T19:09:17;53.65;;;43.10;;
49710;SDS011;35602;44.534;18.696;2022-09-30T19:14:18;53.08;;;43.58;;
49710;SDS011;35602;44.534;18.696;2022-09-30T19:19:19;50.60;;;42.05;;
49710;SDS011;35602;44.534;18.696;2022-09-30T19:24:22;50.60;;;42.33;;
49710;SDS011;35602;44.534;18.696;2022-09-30T19:29:24;51.03;;;42.25;;
49710;SDS011;35602;44.534;18.696;2022-09-30T19:34:24;49.75;;;41.58;;
49710;SDS011;35602;44.534;18.696;2022-09-30T19:39:26;51.60;;;42.80;;
49710;SDS011;35602;44.534;18.696;2022-09-30T19:44:28;47.75;;;40.67;;
49710;SDS011;35602;44.534;18.696;2022-09-30T19:49:30;48.28;;;41.03;;
49710;SDS011;35602;44.534;18.696;2022-09-30T19:54:31;48.75;;;40.63;;
49710;SDS011;35602;44.534;18.696;2022-09-30T19:59:32;49.03;;;41.58;;
49710;SDS011;35602;44.534;18.696;2022-09-30T20:04:34;48.72;;;40.92;;
49710;SDS011;35602;44.534;18.696;2022-09-30T20:09:35;49.05;;;41.63;;
49710;SDS011;35602;44.534;18.696;2022-09-30T20:14:39;44.83;;;38.53;;
49710;SDS011;35602;44.534;18.696;2022-09-30T20:19:59;47.72;;;40.35;;
49710;SDS011;35602;44.534;18.696;2022-09-30T20:25:18;51.33;;;39.72;;
49710;SDS011;35602;44.534;18.696;2022-09-30T20:30:19;46.28;;;38.88;;
49710;SDS011;35602;44.534;18.696;2022-09-30T20:35:20;47.42;;;38.25;;
49710;SDS011;35602;44.534;18.696;2022-09-30T20:40:21;44.63;;;36.63;;
49710;SDS011;35602;44.534;18.696;2022-09-30T20:45:22;43.40;;;36.95;;
49710;SDS011;35602;44.534;18.696;2022-09-30T20:50:25;43.92;;;35.65;;
49710;SDS011;35602;44.534;18.696;2022-09-30T20:55:36;45.25;;;36.08;;
49710;SDS011;35602;44.534;18.696;2022-09-30T21:00:39;45.50;;;35.95;;
49710;SDS011;35602;44.534;18.696;2022-09-30T21:05:40;43.33;;;36.15;;
49710;SDS011;35602;44.534;18.696;2022-09-30T21:10:51;44.13;;;35.70;;
49710;SDS011;35602;44.534;18.696;2022-09-30T21:15:58;40.65;;;33.90;;
49710;SDS011;35602;44.534;18.696;2022-09-30T21:21:00;40.22;;;35.10;;
49710;SDS011;35602;44.534;18.696;2022-09-30T21:26:20;39.63;;;32.92;;
49710;SDS011;35602;44.534;18.696;2022-09-30T21:31:22;40.45;;;33.30;;
49710;SDS011;35602;44.534;18.696;2022-09-30T21:36:26;40.47;;;34.53;;
49710;SDS011;35602;44.534;18.696;2022-09-30T21:41:28;37.80;;;33.13;;
49710;SDS011;35602;44.534;18.696;2022-09-30T21:46:32;37.95;;;32.63;;
49710;SDS011;35602;44.534;18.696;2022-09-30T21:51:34;38.83;;;32.47;;
49710;SDS011;35602;44.534;18.696;2022-09-30T21:56:35;37.63;;;31.50;;
49710;SDS011;35602;44.534;18.696;2022-09-30T22:01:37;36.95;;;30.77;;
49710;SDS011;35602;44.534;18.696;2022-09-30T22:06:38;38.17;;;32.15;;
49710;SDS011;35602;44.534;18.696;2022-09-30T22:11:39;38.72;;;32.40;;
49710;SDS011;35602;44.534;18.696;2022-09-30T22:16:41;37.30;;;30.77;;
49710;SDS011;35602;44.534;18.696;2022-09-30T22:21:43;35.20;;;30.12;;
49710;SDS011;35602;44.534;18.696;2022-09-30T22:26:44;34.30;;;30.40;;
49710;SDS011;35602;44.534;18.696;2022-09-30T22:31:47;34.38;;;29.92;;
49710;SDS011;35602;44.534;18.696;2022-09-30T22:36:47;33.33;;;29.27;;
49710;SDS011;35602;44.534;18.696;2022-09-30T22:42:07;32.80;;;28.70;;
49710;SDS011;35602;44.534;18.696;2022-09-30T22:47:08;32.95;;;29.35;;
49710;SDS011;35602;44.534;18.696;2022-09-30T22:52:10;32.08;;;28.35;;
49710;SDS011;35602;44.534;18.696;2022-09-30T22:57:11;33.38;;;28.83;;
49710;SDS011;35602;44.534;18.696;2022-09-30T23:02:13;32.83;;;28.23;;
49710;SDS011;35602;44.534;18.696;2022-09-30T23:07:14;30.67;;;27.33;;
49710;SDS011;35602;44.534;18.696;2022-09-30T23:12:16;32.85;;;28.50;;
49710;SDS011;35602;44.534;18.696;2022-09-30T23:17:17;34.10;;;27.73;;
49710;SDS011;35602;44.534;18.696;2022-09-30T23:22:18;32.42;;;27.00;;
49710;SDS011;35602;44.534;18.696;2022-09-30T23:27:19;31.17;;;26.62;;
49710;SDS011;35602;44.534;18.696;2022-09-30T23:32:19;31.33;;;26.75;;
49710;SDS011;35602;44.534;18.696;2022-09-30T23:37:20;32.25;;;26.30;;
49710;SDS011;35602;44.534;18.696;2022-09-30T23:42:21;31.00;;;26.12;;
49710;SDS011;35602;44.534;18.696;2022-09-30T23:47:22;30.42;;;25.62;;
49710;SDS011;35602;44.534;18.696;2022-09-30T23:52:22;30.65;;;25.88;;
49710;SDS011;35602;44.534;18.696;2022-09-30T23:57:23;27.75;;;24.33;;
